createdAt,value
2018-01-03T00:01:21.896Z,1.52
2018-01-03T00:03:53.679Z,0.88
2018-01-03T00:06:22.361Z,1.52
2018-01-03T00:08:52.504Z,1.20
2018-01-03T00:11:21.789Z,1.48
2018-01-03T00:13:50.165Z,1.00
2018-01-03T00:16:17.693Z,1.37
2018-01-03T00:18:45.278Z,1.92
2018-01-03T00:21:13.869Z,1.48
2018-01-03T00:23:42.533Z,1.60
2018-01-03T00:26:13.075Z,2.97
2018-01-03T00:28:40.933Z,2.33
2018-01-03T00:31:09.223Z,2.35
2018-01-03T00:33:36.901Z,2.65
2018-01-03T00:36:05.280Z,2.20
2018-01-03T00:38:34.615Z,1.50
2018-01-03T00:41:03.458Z,1.98
2018-01-03T00:43:32.209Z,2.35
2018-01-03T00:46:02.667Z,3.03
2018-01-03T00:48:30.149Z,1.70
2018-01-03T00:50:57.683Z,1.77
2018-01-03T00:56:18.457Z,1.45
2018-01-03T00:58:46.285Z,1.77
2018-01-03T01:01:13.754Z,1.70
2018-01-03T01:03:41.721Z,1.65
2018-01-03T01:06:09.992Z,1.50
2018-01-03T01:08:37.443Z,1.55
2018-01-03T01:11:04.877Z,1.30
2018-01-03T01:13:34.280Z,1.65
2018-01-03T01:16:01.733Z,1.50
2018-01-03T01:21:03.010Z,1.85
2018-01-03T01:23:31.396Z,1.20
2018-01-03T01:25:58.845Z,1.37
2018-01-03T01:28:26.286Z,1.60
2018-01-03T01:30:53.725Z,1.30
2018-01-03T01:33:21.181Z,1.77
2018-01-03T01:35:48.639Z,1.20
2018-01-03T01:38:16.469Z,1.45
2018-01-03T01:40:45.853Z,1.33
2018-01-03T01:43:13.317Z,1.70
2018-01-03T01:45:40.854Z,2.00
2018-01-03T01:48:08.297Z,1.73
2018-01-03T01:50:35.737Z,1.83
2018-01-03T01:53:04.054Z,1.25
2018-01-03T01:55:31.503Z,1.55
2018-01-03T01:57:59.890Z,1.95
2018-01-03T02:00:27.328Z,1.92
2018-01-03T02:02:54.774Z,1.80
2018-01-03T02:05:22.216Z,1.60
2018-01-03T02:07:49.693Z,1.55
2018-01-03T02:10:17.151Z,2.42
2018-01-03T02:12:44.602Z,2.10
2018-01-03T02:15:12.052Z,1.75
2018-01-03T02:17:40.507Z,1.80
2018-01-03T02:20:08.333Z,1.60
2018-01-03T02:22:35.767Z,2.03
2018-01-03T02:25:03.213Z,2.85
2018-01-03T02:27:31.561Z,2.22
2018-01-03T02:29:59.454Z,2.53
2018-01-03T02:32:27.261Z,2.20
2018-01-03T02:34:54.694Z,3.30
2018-01-03T02:37:22.138Z,2.30
2018-01-03T02:39:49.576Z,2.60
2018-01-03T02:42:17.424Z,3.37
2018-01-03T02:44:44.862Z,2.40
2018-01-03T02:47:13.358Z,2.17
2018-01-03T02:49:40.834Z,3.45
2018-01-03T02:52:08.654Z,3.97
2018-01-03T02:54:36.118Z,4.18
2018-01-03T02:57:03.561Z,3.00
2018-01-03T02:59:31.005Z,4.15
2018-01-03T03:01:59.349Z,3.90
2018-01-03T03:04:27.589Z,2.78
2018-01-03T03:06:55.034Z,3.67
2018-01-03T03:09:22.462Z,4.30
2018-01-03T03:11:50.765Z,3.42
2018-01-03T03:14:18.217Z,3.95
2018-01-03T03:16:46.310Z,2.85
2018-01-03T03:19:14.617Z,2.97
2018-01-03T03:21:42.466Z,2.65
2018-01-03T03:24:09.918Z,2.35
2018-01-03T03:26:37.346Z,2.10
2018-01-03T03:29:04.800Z,1.75
2018-01-03T03:31:32.240Z,2.08
2018-01-03T03:33:59.683Z,2.12
2018-01-03T03:36:27.123Z,1.80
2018-01-03T03:38:54.967Z,1.85
2018-01-03T03:41:22.418Z,1.42
2018-01-03T03:43:49.857Z,1.83
2018-01-03T03:46:17.309Z,1.60
2018-01-03T03:48:44.756Z,1.25
2018-01-03T03:51:12.189Z,1.10
2018-01-03T03:53:39.647Z,1.83
2018-01-03T03:56:07.099Z,1.23
2018-01-03T03:58:34.560Z,1.10
2018-01-03T04:01:01.990Z,1.62
2018-01-03T04:03:29.834Z,1.20
2018-01-03T04:05:57.278Z,1.30
2018-01-03T04:08:25.636Z,1.50
2018-01-03T04:10:53.074Z,0.90
2018-01-03T04:13:20.519Z,1.33
2018-01-03T04:15:49.245Z,1.35
2018-01-03T04:18:16.671Z,1.02
2018-01-03T04:20:44.136Z,1.48
2018-01-03T04:23:11.574Z,1.58
2018-01-03T04:25:39.412Z,1.30
2018-01-03T04:28:06.870Z,1.08
2018-01-03T04:30:34.331Z,1.70
2018-01-03T04:33:01.791Z,1.48
2018-01-03T04:35:29.230Z,1.37
2018-01-03T04:37:56.717Z,1.25
2018-01-03T04:40:24.171Z,2.20
2018-01-03T04:42:51.610Z,2.00
2018-01-03T04:45:19.075Z,2.22
2018-01-03T04:47:46.514Z,2.00
2018-01-03T04:50:13.970Z,2.08
2018-01-03T04:52:41.410Z,1.95
2018-01-03T04:55:08.846Z,1.87
2018-01-03T04:57:36.287Z,2.30
2018-01-03T05:00:04.132Z,1.77
2018-01-03T05:02:31.572Z,1.90
2018-01-03T05:04:59.020Z,2.25
2018-01-03T05:07:26.470Z,1.60
2018-01-03T05:09:53.914Z,1.25
2018-01-03T05:12:22.253Z,1.60
2018-01-03T05:14:50.094Z,1.67
2018-01-03T05:17:18.416Z,1.80
2018-01-03T05:19:45.862Z,1.40
2018-01-03T05:22:13.301Z,1.85
2018-01-03T05:24:41.147Z,1.92
2018-01-03T05:27:08.594Z,1.92
2018-01-03T05:29:36.031Z,1.58
2018-01-03T05:32:03.496Z,2.30
2018-01-03T05:34:30.930Z,1.20
2018-01-03T05:36:58.369Z,1.48
2018-01-03T05:39:25.811Z,1.98
2018-01-03T05:41:53.646Z,1.37
2018-01-03T05:44:21.081Z,1.83
2018-01-03T05:46:48.522Z,1.20
2018-01-03T05:49:15.989Z,0.70
2018-01-03T05:51:43.428Z,1.10
2018-01-03T05:54:10.892Z,1.00
2018-01-03T05:56:38.327Z,0.80
2018-01-03T05:59:06.162Z,0.75
2018-01-03T06:01:33.611Z,0.60
2018-01-03T06:04:01.055Z,0.75
2018-01-03T06:06:28.512Z,1.00
2018-01-03T06:08:55.954Z,0.65
2018-01-03T06:11:23.410Z,0.65
2018-01-03T06:13:51.772Z,0.50
2018-01-03T06:16:19.201Z,0.47
2018-01-03T06:18:47.057Z,0.73
2018-01-03T06:21:14.518Z,0.50
2018-01-03T06:23:42.525Z,0.40
2018-01-03T06:26:09.958Z,0.68
2018-01-03T06:28:37.818Z,0.70
2018-01-03T06:31:05.750Z,0.60
2018-01-03T06:33:33.201Z,0.40
2018-01-03T06:36:00.691Z,0.43
2018-01-03T06:38:28.181Z,0.50
2018-01-03T06:40:55.620Z,0.40
2018-01-03T06:43:23.466Z,0.40
2018-01-03T06:45:50.934Z,0.40
2018-01-03T06:48:18.460Z,0.30
2018-01-03T06:50:45.922Z,0.40
2018-01-03T06:53:13.400Z,0.40
2018-01-03T06:55:40.853Z,0.60
2018-01-03T06:58:08.335Z,0.70
2018-01-03T07:00:38.130Z,0.60
2018-01-03T07:03:05.673Z,0.40
2018-01-03T07:05:33.104Z,0.40
2018-01-03T07:08:00.558Z,0.65
2018-01-03T07:10:28.023Z,0.40
2018-01-03T07:12:55.484Z,0.50
2018-01-03T07:15:22.943Z,0.60
2018-01-03T07:17:50.431Z,0.40
2018-01-03T07:20:18.349Z,0.50
2018-01-03T07:22:45.837Z,0.60
2018-01-03T07:25:13.303Z,0.60
2018-01-03T07:27:40.749Z,0.60
2018-01-03T07:30:09.116Z,0.90
2018-01-03T07:32:37.374Z,0.80
2018-01-03T07:35:05.356Z,0.55
2018-01-03T07:37:32.810Z,0.50
2018-01-03T07:40:00.325Z,0.70
2018-01-03T07:42:28.565Z,0.40
2018-01-03T07:44:56.030Z,0.40
2018-01-03T07:47:24.449Z,0.68
2018-01-03T07:49:52.280Z,0.80
2018-01-03T07:52:19.743Z,1.33
2018-01-03T07:54:47.188Z,1.30
2018-01-03T07:57:15.162Z,1.55
2018-01-03T07:59:43.583Z,1.15
2018-01-03T08:02:11.014Z,0.77
2018-01-03T08:04:38.879Z,1.20
2018-01-03T08:07:06.722Z,0.75
2018-01-03T08:09:34.195Z,0.60
2018-01-03T08:12:01.636Z,0.77
2018-01-03T08:14:29.232Z,0.70
2018-01-03T08:16:57.101Z,0.85
2018-01-03T08:19:24.929Z,0.70
2018-01-03T08:21:53.374Z,0.60
2018-01-03T08:24:20.818Z,0.50
2018-01-03T08:26:50.223Z,0.50
2018-01-03T08:29:17.667Z,1.20
2018-01-03T08:31:47.042Z,0.47
2018-01-03T08:34:14.490Z,0.60
2018-01-03T08:36:41.938Z,0.50
2018-01-03T08:39:09.379Z,0.50
2018-01-03T08:41:36.821Z,0.57
2018-01-03T08:44:06.208Z,0.45
2018-01-03T08:46:33.650Z,0.95
2018-01-03T08:49:01.494Z,0.68
2018-01-03T08:51:29.886Z,0.40
2018-01-03T08:54:00.302Z,0.50
2018-01-03T08:56:27.754Z,0.45
2018-01-03T08:58:55.208Z,0.60
2018-01-03T09:01:22.654Z,0.60
2018-01-03T09:03:50.099Z,0.80
2018-01-03T09:06:17.552Z,1.12
2018-01-03T09:08:45.900Z,0.70
2018-01-03T09:11:13.678Z,0.60
2018-01-03T09:13:42.051Z,0.47
2018-01-03T09:16:10.126Z,0.60
2018-01-03T09:18:39.557Z,0.43
2018-01-03T09:21:07.015Z,0.77
2018-01-03T09:23:35.415Z,0.90
2018-01-03T09:26:02.850Z,1.02
2018-01-03T09:28:30.303Z,0.73
2018-01-03T09:30:57.781Z,1.05
2018-01-03T09:33:25.218Z,0.70
2018-01-03T09:35:54.607Z,0.88
2018-01-03T09:38:22.063Z,1.17
2018-01-03T09:40:50.450Z,0.60
2018-01-03T09:43:17.898Z,0.82
2018-01-03T09:45:45.346Z,0.88
2018-01-03T09:48:12.802Z,0.82
2018-01-03T09:50:41.524Z,0.70
2018-01-03T09:53:09.752Z,0.90
2018-01-03T09:55:38.138Z,0.60
2018-01-03T09:58:05.602Z,0.50
2018-01-03T10:00:33.053Z,0.70
2018-01-03T10:03:00.524Z,0.70
2018-01-03T10:05:28.037Z,0.70
2018-01-03T10:07:55.462Z,0.90
2018-01-03T10:10:22.923Z,0.70
2018-01-03T10:12:50.361Z,1.05
2018-01-03T10:15:18.690Z,0.98
2018-01-03T10:17:46.541Z,1.27
2018-01-03T10:20:14.010Z,0.40
2018-01-03T10:22:41.463Z,0.80
2018-01-03T10:25:08.932Z,0.40
2018-01-03T10:27:36.761Z,0.50
2018-01-03T10:30:04.255Z,0.40
2018-01-03T10:32:32.145Z,0.50
2018-01-03T10:34:59.610Z,0.40
2018-01-03T10:37:27.052Z,0.40
2018-01-03T10:39:54.510Z,0.30
2018-01-03T10:42:21.960Z,0.37
2018-01-03T10:44:49.408Z,0.40
2018-01-03T10:47:17.252Z,0.50
2018-01-03T10:49:44.698Z,0.40
2018-01-03T10:52:12.128Z,0.73
2018-01-03T10:54:39.595Z,0.40
2018-01-03T10:57:07.041Z,0.40
2018-01-03T10:59:36.443Z,0.40
2018-01-03T11:02:03.910Z,0.55
2018-01-03T11:04:31.347Z,0.40
2018-01-03T11:06:58.810Z,0.50
2018-01-03T11:09:27.176Z,0.40
2018-01-03T11:11:54.645Z,0.68
2018-01-03T11:14:22.130Z,0.90
2018-01-03T11:16:49.588Z,0.50
2018-01-03T11:19:17.018Z,0.50
2018-01-03T11:21:44.456Z,0.68
2018-01-03T11:24:11.926Z,0.50
2018-01-03T11:26:39.793Z,0.60
2018-01-03T11:29:07.762Z,0.80
2018-01-03T11:31:35.218Z,0.50
2018-01-03T11:34:02.671Z,0.85
2018-01-03T11:36:32.023Z,1.30
2018-01-03T11:38:59.481Z,0.80
2018-01-03T11:41:26.918Z,1.08
2018-01-03T11:43:54.382Z,0.85
2018-01-03T11:46:21.809Z,0.90
2018-01-03T11:48:49.307Z,1.42
2018-01-03T11:51:16.727Z,1.33
2018-01-03T11:53:44.178Z,1.40
2018-01-03T11:56:12.547Z,0.80
2018-01-03T11:58:39.982Z,0.90
2018-01-03T12:01:07.438Z,0.70
2018-01-03T12:03:35.889Z,1.12
2018-01-03T12:06:04.197Z,0.85
2018-01-03T12:08:31.644Z,0.82
2018-01-03T12:10:59.474Z,0.88
2018-01-03T12:13:26.930Z,0.60
2018-01-03T12:15:55.250Z,0.60
2018-01-03T12:18:26.219Z,1.00
2018-01-03T12:20:53.651Z,0.80
2018-01-03T12:23:21.094Z,1.08
2018-01-03T12:25:48.934Z,1.00
2018-01-03T12:28:16.418Z,1.00
2018-01-03T12:30:44.271Z,1.35
2018-01-03T12:33:12.556Z,1.17
2018-01-03T12:35:40.402Z,1.12
2018-01-03T12:38:07.862Z,1.10
2018-01-03T12:40:35.297Z,0.90
2018-01-03T12:43:02.736Z,1.30
2018-01-03T12:45:30.181Z,1.00
2018-01-03T12:47:57.609Z,1.37
2018-01-03T12:50:27.399Z,0.88
2018-01-03T12:52:54.844Z,0.90
2018-01-03T12:55:22.305Z,0.60
2018-01-03T12:57:49.762Z,1.17
2018-01-03T13:00:17.219Z,0.93
2018-01-03T13:02:44.698Z,1.05
2018-01-03T13:05:12.177Z,1.00
2018-01-03T13:07:40.031Z,1.10
2018-01-03T13:10:07.861Z,0.80
2018-01-03T13:12:36.178Z,0.90
2018-01-03T13:15:04.045Z,0.88
2018-01-03T13:17:31.919Z,1.73
2018-01-03T13:19:59.746Z,1.25
2018-01-03T13:22:27.205Z,1.55
2018-01-03T13:24:54.649Z,0.80
2018-01-03T13:27:22.080Z,0.90
2018-01-03T13:29:49.518Z,0.75
2018-01-03T13:32:17.932Z,0.90
2018-01-03T13:40:24.969Z,0.90
2018-01-03T13:42:52.401Z,0.85
2018-01-03T13:45:20.778Z,0.85
2018-01-03T13:47:48.237Z,1.00
2018-01-03T13:50:15.710Z,1.05
2018-01-03T13:52:43.142Z,1.30
2018-01-03T13:55:10.911Z,0.77
2018-01-03T13:57:38.339Z,1.73
2018-01-03T14:00:06.805Z,0.80
2018-01-03T14:02:34.665Z,0.90
2018-01-03T14:05:03.078Z,1.00
2018-01-03T14:07:30.664Z,0.93
2018-01-03T14:09:58.174Z,1.37
2018-01-03T14:12:26.151Z,1.73
2018-01-03T14:14:54.047Z,1.05
2018-01-03T14:17:23.576Z,1.83
2018-01-03T14:19:51.052Z,1.08
2018-01-03T14:22:18.665Z,1.52
2018-01-03T14:24:46.099Z,0.88
2018-01-03T14:27:13.595Z,0.85
2018-01-03T14:29:41.067Z,1.05
2018-01-03T14:32:08.529Z,1.10
2018-01-03T14:34:35.994Z,1.85
2018-01-03T14:37:03.624Z,0.85
2018-01-03T14:39:32.124Z,1.05
2018-01-03T14:42:00.497Z,1.25
2018-01-03T14:44:28.896Z,1.37
2018-01-03T14:46:56.567Z,1.62
2018-01-03T14:49:25.129Z,1.10
2018-01-03T14:51:52.607Z,1.45
2018-01-03T14:54:20.074Z,2.12
2018-01-03T14:56:48.120Z,0.93
2018-01-03T14:59:15.570Z,1.05
2018-01-03T15:01:44.037Z,1.23
2018-01-03T15:04:12.183Z,1.00
2018-01-03T15:06:39.659Z,1.23
2018-01-03T15:09:07.127Z,1.50
2018-01-03T15:11:34.642Z,1.50
2018-01-03T15:14:02.511Z,1.20
2018-01-03T15:16:30.440Z,1.45
2018-01-03T15:18:59.762Z,1.10
2018-01-03T15:21:27.235Z,1.67
2018-01-03T15:23:56.487Z,1.20
2018-01-03T15:26:24.210Z,0.70
2018-01-03T15:28:51.654Z,1.30
2018-01-03T15:31:19.514Z,1.17
2018-01-03T15:33:48.799Z,1.00
2018-01-03T15:36:17.162Z,1.08
2018-01-03T15:38:44.648Z,1.12
2018-01-03T15:41:12.127Z,0.80
2018-01-03T15:43:39.993Z,0.90
2018-01-03T15:46:07.431Z,0.62
2018-01-03T15:48:35.272Z,0.80
2018-01-03T15:51:02.722Z,1.25
2018-01-03T15:53:30.175Z,2.03
2018-01-03T15:55:57.613Z,0.90
2018-01-03T15:58:25.071Z,0.60
2018-01-03T16:00:52.505Z,1.33
2018-01-03T16:03:19.941Z,0.93
2018-01-03T16:05:47.777Z,1.30
2018-01-03T16:08:15.230Z,0.70
2018-01-03T16:10:42.690Z,1.20
2018-01-03T16:13:10.118Z,1.17
2018-01-03T16:15:38.522Z,1.40
2018-01-03T16:18:05.966Z,0.85
2018-01-03T16:20:33.417Z,1.17
2018-01-03T16:23:00.879Z,0.70
2018-01-03T16:25:29.264Z,1.50
2018-01-03T16:27:56.714Z,1.10
2018-01-03T16:30:24.166Z,1.15
2018-01-03T16:32:51.610Z,1.23
2018-01-03T16:35:19.068Z,1.75
2018-01-03T16:37:46.526Z,1.40
2018-01-03T16:40:13.955Z,1.42
2018-01-03T16:42:41.437Z,1.20
2018-01-03T16:45:08.931Z,1.37
2018-01-03T16:47:36.374Z,0.90
2018-01-03T16:50:03.825Z,0.80
2018-01-03T16:52:37.637Z,0.80
2018-01-03T16:55:05.102Z,1.30
2018-01-03T16:57:32.543Z,0.65
2018-01-03T16:59:59.985Z,0.70
2018-01-03T17:02:27.449Z,1.10
2018-01-03T17:04:54.899Z,1.48
2018-01-03T17:07:22.386Z,1.10
2018-01-03T17:09:49.818Z,0.90
2018-01-03T17:12:18.753Z,0.90
2018-01-03T17:14:46.797Z,1.10
2018-01-03T17:17:15.226Z,1.10
2018-01-03T17:19:43.075Z,1.27
2018-01-03T17:22:10.590Z,1.08
2018-01-03T17:24:41.965Z,1.52
2018-01-03T17:27:09.422Z,3.70
2018-01-03T17:29:36.881Z,1.05
2018-01-03T17:32:04.336Z,1.65
2018-01-03T17:34:31.778Z,1.00
2018-01-03T17:36:59.282Z,1.55
2018-01-03T17:39:27.114Z,0.88
2018-01-03T17:41:54.557Z,1.60
2018-01-03T17:44:22.012Z,0.80
2018-01-03T17:46:49.446Z,0.85
2018-01-03T17:49:16.901Z,0.80
2018-01-03T17:51:44.357Z,0.50
2018-01-03T17:54:11.826Z,1.23
2018-01-03T17:56:40.202Z,0.80
2018-01-03T17:59:07.662Z,0.85
2018-01-03T18:01:35.579Z,1.05
2018-01-03T18:06:37.732Z,1.00
2018-01-03T18:09:06.535Z,0.90
2018-01-03T18:11:33.982Z,0.98
2018-01-03T18:14:02.158Z,1.70
2018-01-03T18:16:29.606Z,1.05
2018-01-03T18:18:57.067Z,1.20
2018-01-03T18:21:24.501Z,1.30
2018-01-03T18:23:51.963Z,1.40
2018-01-03T18:26:20.783Z,1.20
2018-01-03T18:28:48.226Z,1.10
2018-01-03T18:31:15.686Z,1.95
2018-01-03T18:33:43.127Z,1.60
2018-01-03T18:36:10.572Z,2.55
2018-01-03T18:38:38.007Z,1.67
2018-01-03T18:41:05.492Z,4.30
2018-01-03T18:43:33.870Z,6.30
2018-01-03T18:46:01.334Z,2.65
2018-01-03T18:48:28.814Z,3.17
2018-01-03T18:50:56.690Z,1.45
2018-01-03T18:53:24.332Z,2.08
2018-01-03T18:55:52.030Z,1.70
2018-01-03T18:58:19.479Z,2.00
2018-01-03T19:00:47.886Z,2.05
2018-01-03T19:03:15.724Z,1.40
2018-01-03T19:05:43.182Z,2.47
2018-01-03T19:08:10.676Z,5.87
2018-01-03T19:10:38.540Z,1.58
2018-01-03T19:13:07.503Z,1.52
2018-01-03T19:15:36.906Z,1.45
2018-01-03T19:18:04.367Z,1.02
2018-01-03T19:20:32.498Z,1.92
2018-01-03T19:22:59.952Z,1.00
2018-01-03T19:25:27.422Z,1.15
2018-01-03T19:27:54.910Z,1.73
2018-01-03T19:30:22.352Z,1.60
2018-01-03T19:32:51.621Z,2.25
2018-01-03T19:35:19.167Z,1.83
2018-01-03T19:37:46.634Z,1.73
2018-01-03T19:40:14.209Z,1.52
2018-01-03T19:42:41.662Z,1.37
2018-01-03T19:45:10.915Z,2.20
2018-01-03T19:47:40.286Z,1.15
2018-01-03T19:50:07.752Z,1.80
2018-01-03T19:52:35.391Z,1.40
2018-01-03T19:55:02.871Z,1.55
2018-01-03T19:57:30.356Z,1.33
2018-01-03T20:00:00.366Z,1.15
2018-01-03T20:02:28.555Z,1.95
2018-01-03T20:04:58.370Z,1.65
2018-01-03T20:07:25.877Z,1.77
2018-01-03T20:09:53.546Z,1.80
2018-01-03T20:12:20.977Z,1.65
2018-01-03T20:14:48.554Z,1.50
2018-01-03T20:17:16.018Z,1.50
2018-01-03T20:19:43.507Z,2.05
2018-01-03T20:22:11.345Z,1.73
2018-01-03T20:24:38.794Z,1.90
2018-01-03T20:27:07.106Z,1.50
2018-01-03T20:29:34.965Z,1.30
2018-01-03T20:32:02.843Z,1.92
2018-01-03T20:34:30.292Z,1.98
2018-01-03T20:36:58.174Z,2.70
2018-01-03T20:39:27.564Z,1.45
2018-01-03T20:41:57.375Z,3.50
2018-01-03T20:44:25.190Z,2.80
2018-01-03T20:46:52.666Z,3.03
2018-01-03T20:49:20.157Z,2.53
2018-01-03T20:51:47.984Z,3.42
2018-01-03T20:54:15.443Z,2.00
2018-01-03T20:56:42.888Z,1.90
2018-01-03T20:59:10.365Z,2.87
2018-01-03T21:01:37.768Z,1.87
2018-01-03T21:04:05.213Z,2.28
2018-01-03T21:06:33.069Z,2.25
2018-01-03T21:09:00.504Z,2.37
2018-01-03T21:11:27.955Z,2.60
2018-01-03T21:13:55.406Z,2.00
2018-01-03T21:16:22.848Z,4.03
2018-01-03T21:18:51.201Z,2.00
2018-01-03T21:21:18.660Z,1.83
2018-01-03T21:23:47.078Z,1.83
2018-01-03T21:26:14.537Z,2.37
2018-01-03T21:28:41.985Z,1.70
2018-01-03T21:31:09.451Z,2.12
2018-01-03T21:33:36.896Z,1.75
2018-01-03T21:36:05.406Z,1.40
2018-01-03T21:38:32.837Z,1.70
2018-01-03T21:41:00.342Z,2.30
2018-01-03T21:43:28.167Z,1.45
2018-01-03T21:45:55.602Z,2.55
2018-01-03T21:48:23.047Z,1.25
2018-01-03T21:50:50.528Z,3.05
2018-01-03T21:53:17.964Z,1.40
2018-01-03T21:55:45.395Z,1.52
2018-01-03T21:58:13.265Z,1.87
2018-01-03T22:00:41.084Z,1.15
2018-01-03T22:03:08.531Z,2.08
2018-01-03T22:05:35.968Z,2.42
2018-01-03T22:08:03.437Z,2.20
2018-01-03T22:10:30.903Z,1.75
2018-01-03T22:12:58.352Z,3.10
2018-01-03T22:15:25.806Z,1.60
2018-01-03T22:17:53.243Z,1.20
2018-01-03T22:20:20.701Z,0.88
2018-01-03T22:22:49.050Z,1.58
2018-01-03T22:25:17.415Z,2.42
2018-01-03T22:27:44.851Z,1.02
2018-01-03T22:30:13.894Z,1.73
2018-01-03T22:32:41.764Z,2.58
2018-01-03T22:35:09.560Z,1.10
2018-01-03T22:37:37.003Z,1.45
2018-01-03T22:40:04.465Z,2.55
2018-01-03T22:42:32.603Z,1.17
2018-01-03T22:45:00.455Z,0.70
2018-01-03T22:47:28.280Z,1.50
2018-01-03T22:49:55.761Z,1.27
2018-01-03T22:52:23.239Z,1.50
2018-01-03T22:54:51.632Z,2.00
2018-01-03T22:57:20.419Z,1.45
2018-01-03T22:59:50.264Z,1.00
2018-01-03T23:02:17.717Z,2.17
2018-01-03T23:04:45.206Z,1.15
2018-01-03T23:07:12.637Z,2.83
2018-01-03T23:09:40.120Z,1.20
2018-01-03T23:12:07.566Z,2.17
2018-01-03T23:14:35.039Z,1.33
2018-01-03T23:17:02.496Z,1.35
2018-01-03T23:19:51.781Z,1.20
2018-01-03T23:22:19.316Z,1.42
2018-01-03T23:24:46.882Z,1.00
2018-01-03T23:27:14.424Z,2.47
2018-01-03T23:29:41.910Z,1.67
2018-01-03T23:32:09.416Z,3.05
2018-01-03T23:34:36.959Z,2.35
2018-01-03T23:37:04.850Z,1.10
2018-01-03T23:39:32.301Z,1.92
2018-01-03T23:42:00.546Z,1.52
2018-01-03T23:44:28.119Z,1.75
2018-01-03T23:46:57.898Z,0.95
2018-01-03T23:49:25.386Z,1.75
2018-01-03T23:51:52.958Z,1.80
2018-01-03T23:54:20.560Z,2.60
2018-01-03T23:56:49.177Z,2.00
2018-01-03T23:59:16.617Z,1.00
